sensor_id;sensor_type;location;lat;lon;timestamp;pressure;altitude;pressure_sealevel;temperature
41940;BMP180;23057;48.554;14.454;2022-09-09T00:02:06;93694.00;;;18.50
41940;BMP180;23057;48.554;14.454;2022-09-09T00:04:59;93692.00;;;18.40
41940;BMP180;23057;48.554;14.454;2022-09-09T00:07:52;93678.00;;;18.30
41940;BMP180;23057;48.554;14.454;2022-09-09T00:10:40;93677.00;;;18.30
41940;BMP180;23057;48.554;14.454;2022-09-09T00:13:34;93686.00;;;18.20
41940;BMP180;23057;48.554;14.454;2022-09-09T00:16:21;93679.00;;;18.10
41940;BMP180;23057;48.554;14.454;2022-09-09T00:21:57;93677.00;;;18.20
41940;BMP180;23057;48.554;14.454;2022-09-09T00:24:43;93665.00;;;18.20
41940;BMP180;23057;48.554;14.454;2022-09-09T00:30:35;93672.00;;;18.10
41940;BMP180;23057;48.554;14.454;2022-09-09T00:33:11;93665.00;;;18.10
41940;BMP180;23057;48.554;14.454;2022-09-09T00:35:49;93656.00;;;18.20
41940;BMP180;23057;48.554;14.454;2022-09-09T00:38:39;93668.00;;;18.20
41940;BMP180;23057;48.554;14.454;2022-09-09T00:41:38;93658.00;;;18.20
41940;BMP180;23057;48.554;14.454;2022-09-09T00:44:25;93668.00;;;18.10
41940;BMP180;23057;48.554;14.454;2022-09-09T00:50:22;93669.00;;;17.90
41940;BMP180;23057;48.554;14.454;2022-09-09T00:58:36;93654.00;;;17.90
41940;BMP180;23057;48.554;14.454;2022-09-09T01:01:12;93667.00;;;18.00
41940;BMP180;23057;48.554;14.454;2022-09-09T01:03:55;93675.00;;;18.00
41940;BMP180;23057;48.554;14.454;2022-09-09T01:06:32;93673.00;;;18.00
41940;BMP180;23057;48.554;14.454;2022-09-09T01:09:07;93660.00;;;18.00
41940;BMP180;23057;48.554;14.454;2022-09-09T01:14:50;93673.00;;;17.80
41940;BMP180;23057;48.554;14.454;2022-09-09T01:17:31;93676.00;;;17.80
41940;BMP180;23057;48.554;14.454;2022-09-09T01:20:15;93681.00;;;17.80
41940;BMP180;23057;48.554;14.454;2022-09-09T01:28:50;93679.00;;;17.70
41940;BMP180;23057;48.554;14.454;2022-09-09T01:31:29;93676.00;;;17.70
41940;BMP180;23057;48.554;14.454;2022-09-09T01:34:13;93672.00;;;17.70
41940;BMP180;23057;48.554;14.454;2022-09-09T01:36:58;93666.00;;;17.60
41940;BMP180;23057;48.554;14.454;2022-09-09T01:39:36;93679.00;;;17.60
41940;BMP180;23057;48.554;14.454;2022-09-09T01:42:12;93670.00;;;17.70
41940;BMP180;23057;48.554;14.454;2022-09-09T01:44:45;93678.00;;;17.70
41940;BMP180;23057;48.554;14.454;2022-09-09T01:47:16;93683.00;;;17.60
41940;BMP180;23057;48.554;14.454;2022-09-09T01:49:47;93677.00;;;17.70
41940;BMP180;23057;48.554;14.454;2022-09-09T01:52:18;93673.00;;;17.60
41940;BMP180;23057;48.554;14.454;2022-09-09T01:54:49;93666.00;;;17.60
41940;BMP180;23057;48.554;14.454;2022-09-09T01:57:27;93673.00;;;17.60
41940;BMP180;23057;48.554;14.454;2022-09-09T02:00:08;93671.00;;;17.60
41940;BMP180;23057;48.554;14.454;2022-09-09T02:05:40;93665.00;;;17.60
41940;BMP180;23057;48.554;14.454;2022-09-09T02:08:59;93665.00;;;17.60
41940;BMP180;23057;48.554;14.454;2022-09-09T02:11:28;93667.00;;;17.40
41940;BMP180;23057;48.554;14.454;2022-09-09T02:14:04;93669.00;;;17.40
41940;BMP180;23057;48.554;14.454;2022-09-09T02:16:40;93664.00;;;17.40
41940;BMP180;23057;48.554;14.454;2022-09-09T02:19:25;93675.00;;;17.40
41940;BMP180;23057;48.554;14.454;2022-09-09T02:22:01;93668.00;;;17.40
41940;BMP180;23057;48.554;14.454;2022-09-09T02:24:35;93659.00;;;17.40
41940;BMP180;23057;48.554;14.454;2022-09-09T02:27:08;93677.00;;;17.40
41940;BMP180;23057;48.554;14.454;2022-09-09T02:29:41;93672.00;;;17.40
41940;BMP180;23057;48.554;14.454;2022-09-09T02:32:17;93679.00;;;17.40
41940;BMP180;23057;48.554;14.454;2022-09-09T02:34:59;93668.00;;;17.40
41940;BMP180;23057;48.554;14.454;2022-09-09T02:37:38;93668.00;;;17.50
41940;BMP180;23057;48.554;14.454;2022-09-09T02:40:12;93659.00;;;17.40
41940;BMP180;23057;48.554;14.454;2022-09-09T02:42:47;93659.00;;;17.40
41940;BMP180;23057;48.554;14.454;2022-09-09T02:45:23;93656.00;;;17.40
41940;BMP180;23057;48.554;14.454;2022-09-09T02:51:08;93648.00;;;17.40
41940;BMP180;23057;48.554;14.454;2022-09-09T02:53:59;93659.00;;;17.40
41940;BMP180;23057;48.554;14.454;2022-09-09T02:56:54;93659.00;;;17.30
41940;BMP180;23057;48.554;14.454;2022-09-09T02:59:26;93665.00;;;17.30
41940;BMP180;23057;48.554;14.454;2022-09-09T03:01:57;93654.00;;;17.30
41940;BMP180;23057;48.554;14.454;2022-09-09T03:04:29;93652.00;;;17.20
41940;BMP180;23057;48.554;14.454;2022-09-09T03:07:01;93650.00;;;17.20
41940;BMP180;23057;48.554;14.454;2022-09-09T03:09:34;93645.00;;;17.20
41940;BMP180;23057;48.554;14.454;2022-09-09T03:12:04;93651.00;;;17.20
41940;BMP180;23057;48.554;14.454;2022-09-09T03:14:35;93652.00;;;17.30
41940;BMP180;23057;48.554;14.454;2022-09-09T03:17:06;93655.00;;;17.20
41940;BMP180;23057;48.554;14.454;2022-09-09T03:19:37;93660.00;;;17.20
41940;BMP180;23057;48.554;14.454;2022-09-09T03:22:10;93674.00;;;17.20
41940;BMP180;23057;48.554;14.454;2022-09-09T03:24:41;93666.00;;;17.20
41940;BMP180;23057;48.554;14.454;2022-09-09T03:27:12;93666.00;;;17.10
41940;BMP180;23057;48.554;14.454;2022-09-09T03:29:45;93678.00;;;17.00
41940;BMP180;23057;48.554;14.454;2022-09-09T03:32:18;93673.00;;;17.00
41940;BMP180;23057;48.554;14.454;2022-09-09T03:34:52;93667.00;;;16.90
41940;BMP180;23057;48.554;14.454;2022-09-09T03:37:23;93667.00;;;16.80
41940;BMP180;23057;48.554;14.454;2022-09-09T03:39:54;93667.00;;;16.80
41940;BMP180;23057;48.554;14.454;2022-09-09T03:42:25;93665.00;;;16.80
41940;BMP180;23057;48.554;14.454;2022-09-09T03:44:56;93659.00;;;16.80
41940;BMP180;23057;48.554;14.454;2022-09-09T03:47:28;93653.00;;;16.80
41940;BMP180;23057;48.554;14.454;2022-09-09T03:49:59;93656.00;;;16.80
41940;BMP180;23057;48.554;14.454;2022-09-09T03:52:30;93648.00;;;16.80
41940;BMP180;23057;48.554;14.454;2022-09-09T03:55:01;93655.00;;;16.80
41940;BMP180;23057;48.554;14.454;2022-09-09T03:57:32;93655.00;;;16.80
41940;BMP180;23057;48.554;14.454;2022-09-09T04:00:07;93650.00;;;16.80
41940;BMP180;23057;48.554;14.454;2022-09-09T04:02:39;93644.00;;;16.80
41940;BMP180;23057;48.554;14.454;2022-09-09T04:05:09;93645.00;;;16.80
41940;BMP180;23057;48.554;14.454;2022-09-09T04:07:40;93647.00;;;16.70
41940;BMP180;23057;48.554;14.454;2022-09-09T04:10:11;93643.00;;;16.70
41940;BMP180;23057;48.554;14.454;2022-09-09T04:12:42;93655.00;;;16.80
41940;BMP180;23057;48.554;14.454;2022-09-09T04:15:13;93657.00;;;16.80
41940;BMP180;23057;48.554;14.454;2022-09-09T04:17:43;93650.00;;;16.90
41940;BMP180;23057;48.554;14.454;2022-09-09T04:20:14;93653.00;;;16.90
41940;BMP180;23057;48.554;14.454;2022-09-09T04:22:45;93655.00;;;17.00
41940;BMP180;23057;48.554;14.454;2022-09-09T04:25:16;93652.00;;;17.00
41940;BMP180;23057;48.554;14.454;2022-09-09T04:27:46;93656.00;;;17.00
41940;BMP180;23057;48.554;14.454;2022-09-09T04:30:18;93652.00;;;17.10
41940;BMP180;23057;48.554;14.454;2022-09-09T04:32:48;93652.00;;;17.10
41940;BMP180;23057;48.554;14.454;2022-09-09T04:35:19;93655.00;;;17.20
41940;BMP180;23057;48.554;14.454;2022-09-09T04:37:50;93660.00;;;17.20
41940;BMP180;23057;48.554;14.454;2022-09-09T04:40:21;93664.00;;;17.20
41940;BMP180;23057;48.554;14.454;2022-09-09T04:42:52;93664.00;;;17.20
41940;BMP180;23057;48.554;14.454;2022-09-09T04:45:23;93656.00;;;17.20
41940;BMP180;23057;48.554;14.454;2022-09-09T04:47:54;93649.00;;;17.20
41940;BMP180;23057;48.554;14.454;2022-09-09T04:50:25;93646.00;;;17.30
41940;BMP180;23057;48.554;14.454;2022-09-09T04:52:56;93655.00;;;17.60
41940;BMP180;23057;48.554;14.454;2022-09-09T04:55:29;93653.00;;;17.80
41940;BMP180;23057;48.554;14.454;2022-09-09T04:58:05;93652.00;;;18.10
41940;BMP180;23057;48.554;14.454;2022-09-09T05:00:37;93649.00;;;18.40
41940;BMP180;23057;48.554;14.454;2022-09-09T05:03:08;93649.00;;;18.70
41940;BMP180;23057;48.554;14.454;2022-09-09T05:05:39;93643.00;;;19.10
41940;BMP180;23057;48.554;14.454;2022-09-09T05:08:10;93648.00;;;19.40
41940;BMP180;23057;48.554;14.454;2022-09-09T05:10:41;93651.00;;;19.80
41940;BMP180;23057;48.554;14.454;2022-09-09T05:13:12;93653.00;;;20.00
41940;BMP180;23057;48.554;14.454;2022-09-09T05:15:51;93666.00;;;20.20
41940;BMP180;23057;48.554;14.454;2022-09-09T05:18:23;93664.00;;;20.50
41940;BMP180;23057;48.554;14.454;2022-09-09T05:20:58;93669.00;;;20.80
41940;BMP180;23057;48.554;14.454;2022-09-09T05:23:30;93663.00;;;21.10
41940;BMP180;23057;48.554;14.454;2022-09-09T05:26:01;93658.00;;;21.30
41940;BMP180;23057;48.554;14.454;2022-09-09T05:28:36;93666.00;;;21.40
41940;BMP180;23057;48.554;14.454;2022-09-09T05:31:08;93658.00;;;21.30
41940;BMP180;23057;48.554;14.454;2022-09-09T05:33:44;93659.00;;;21.20
41940;BMP180;23057;48.554;14.454;2022-09-09T05:36:18;93656.00;;;21.10
41940;BMP180;23057;48.554;14.454;2022-09-09T05:38:51;93668.00;;;21.10
41940;BMP180;23057;48.554;14.454;2022-09-09T05:41:24;93674.00;;;21.10
41940;BMP180;23057;48.554;14.454;2022-09-09T05:43:55;93679.00;;;21.10
41940;BMP180;23057;48.554;14.454;2022-09-09T05:46:25;93678.00;;;21.10
41940;BMP180;23057;48.554;14.454;2022-09-09T05:48:56;93678.00;;;21.20
41940;BMP180;23057;48.554;14.454;2022-09-09T05:51:29;93679.00;;;21.40
41940;BMP180;23057;48.554;14.454;2022-09-09T05:54:02;93674.00;;;21.50
41940;BMP180;23057;48.554;14.454;2022-09-09T05:56:33;93673.00;;;21.60
41940;BMP180;23057;48.554;14.454;2022-09-09T05:59:04;93675.00;;;21.50
41940;BMP180;23057;48.554;14.454;2022-09-09T06:01:37;93671.00;;;21.50
41940;BMP180;23057;48.554;14.454;2022-09-09T06:04:10;93668.00;;;21.50
41940;BMP180;23057;48.554;14.454;2022-09-09T06:06:41;93672.00;;;21.50
41940;BMP180;23057;48.554;14.454;2022-09-09T06:09:12;93668.00;;;21.50
41940;BMP180;23057;48.554;14.454;2022-09-09T06:11:44;93666.00;;;21.50
41940;BMP180;23057;48.554;14.454;2022-09-09T06:14:15;93667.00;;;21.50
41940;BMP180;23057;48.554;14.454;2022-09-09T06:16:48;93657.00;;;21.60
41940;BMP180;23057;48.554;14.454;2022-09-09T06:19:19;93654.00;;;21.60
41940;BMP180;23057;48.554;14.454;2022-09-09T06:21:50;93651.00;;;21.70
41940;BMP180;23057;48.554;14.454;2022-09-09T06:24:21;93653.00;;;21.90
41940;BMP180;23057;48.554;14.454;2022-09-09T06:26:52;93654.00;;;22.20
41940;BMP180;23057;48.554;14.454;2022-09-09T06:29:24;93654.00;;;22.50
41940;BMP180;23057;48.554;14.454;2022-09-09T06:31:55;93651.00;;;22.80
41940;BMP180;23057;48.554;14.454;2022-09-09T06:34:26;93660.00;;;23.10
41940;BMP180;23057;48.554;14.454;2022-09-09T06:36:57;93664.00;;;23.30
41940;BMP180;23057;48.554;14.454;2022-09-09T06:39:28;93650.00;;;23.50
41940;BMP180;23057;48.554;14.454;2022-09-09T06:41:59;93658.00;;;23.70
41940;BMP180;23057;48.554;14.454;2022-09-09T06:44:30;93667.00;;;23.80
41940;BMP180;23057;48.554;14.454;2022-09-09T06:47:02;93673.00;;;23.70
41940;BMP180;23057;48.554;14.454;2022-09-09T06:49:33;93667.00;;;23.60
41940;BMP180;23057;48.554;14.454;2022-09-09T06:52:05;93665.00;;;23.50
41940;BMP180;23057;48.554;14.454;2022-09-09T06:54:36;93651.00;;;23.40
41940;BMP180;23057;48.554;14.454;2022-09-09T06:57:07;93669.00;;;23.30
41940;BMP180;23057;48.554;14.454;2022-09-09T06:59:38;93671.00;;;23.20
41940;BMP180;23057;48.554;14.454;2022-09-09T07:02:09;93673.00;;;23.10
41940;BMP180;23057;48.554;14.454;2022-09-09T07:04:40;93675.00;;;23.10
41940;BMP180;23057;48.554;14.454;2022-09-09T07:07:10;93679.00;;;23.00
41940;BMP180;23057;48.554;14.454;2022-09-09T07:09:44;93675.00;;;23.00
41940;BMP180;23057;48.554;14.454;2022-09-09T07:12:15;93670.00;;;23.00
41940;BMP180;23057;48.554;14.454;2022-09-09T07:14:46;93658.00;;;23.00
41940;BMP180;23057;48.554;14.454;2022-09-09T07:17:17;93663.00;;;23.00
41940;BMP180;23057;48.554;14.454;2022-09-09T07:19:48;93665.00;;;22.90
41940;BMP180;23057;48.554;14.454;2022-09-09T07:22:19;93660.00;;;22.90
41940;BMP180;23057;48.554;14.454;2022-09-09T07:24:50;93659.00;;;22.90
41940;BMP180;23057;48.554;14.454;2022-09-09T07:27:21;93665.00;;;22.90
41940;BMP180;23057;48.554;14.454;2022-09-09T07:29:51;93668.00;;;22.90
41940;BMP180;23057;48.554;14.454;2022-09-09T07:32:24;93665.00;;;22.90
41940;BMP180;23057;48.554;14.454;2022-09-09T07:35:00;93670.00;;;22.80
41940;BMP180;23057;48.554;14.454;2022-09-09T07:37:31;93664.00;;;22.80
41940;BMP180;23057;48.554;14.454;2022-09-09T07:40:02;93667.00;;;22.70
41940;BMP180;23057;48.554;14.454;2022-09-09T07:42:35;93670.00;;;22.60
41940;BMP180;23057;48.554;14.454;2022-09-09T07:45:06;93676.00;;;22.70
41940;BMP180;23057;48.554;14.454;2022-09-09T07:47:37;93679.00;;;22.70
41940;BMP180;23057;48.554;14.454;2022-09-09T07:50:09;93678.00;;;22.70
41940;BMP180;23057;48.554;14.454;2022-09-09T07:52:40;93679.00;;;22.80
41940;BMP180;23057;48.554;14.454;2022-09-09T07:55:11;93682.00;;;22.90
41940;BMP180;23057;48.554;14.454;2022-09-09T07:57:42;93684.00;;;22.90
41940;BMP180;23057;48.554;14.454;2022-09-09T08:00:13;93695.00;;;23.00
41940;BMP180;23057;48.554;14.454;2022-09-09T08:02:45;93694.00;;;23.00
41940;BMP180;23057;48.554;14.454;2022-09-09T08:05:16;93699.00;;;23.00
41940;BMP180;23057;48.554;14.454;2022-09-09T08:07:48;93692.00;;;22.90
41940;BMP180;23057;48.554;14.454;2022-09-09T08:10:19;93705.00;;;22.90
41940;BMP180;23057;48.554;14.454;2022-09-09T08:12:50;93705.00;;;22.90
41940;BMP180;23057;48.554;14.454;2022-09-09T08:15:20;93710.00;;;23.00
41940;BMP180;23057;48.554;14.454;2022-09-09T08:17:51;93721.00;;;23.00
41940;BMP180;23057;48.554;14.454;2022-09-09T08:20:22;93722.00;;;23.00
41940;BMP180;23057;48.554;14.454;2022-09-09T08:22:55;93727.00;;;23.00
41940;BMP180;23057;48.554;14.454;2022-09-09T08:25:26;93722.00;;;23.00
41940;BMP180;23057;48.554;14.454;2022-09-09T08:27:57;93730.00;;;23.10
41940;BMP180;23057;48.554;14.454;2022-09-09T08:30:27;93725.00;;;23.20
41940;BMP180;23057;48.554;14.454;2022-09-09T08:32:58;93726.00;;;23.20
41940;BMP180;23057;48.554;14.454;2022-09-09T08:35:30;93730.00;;;23.30
41940;BMP180;23057;48.554;14.454;2022-09-09T08:38:02;93728.00;;;23.40
41940;BMP180;23057;48.554;14.454;2022-09-09T08:40:37;93726.00;;;23.40
41940;BMP180;23057;48.554;14.454;2022-09-09T08:43:21;93720.00;;;23.50
41940;BMP180;23057;48.554;14.454;2022-09-09T08:46:09;93724.00;;;23.60
41940;BMP180;23057;48.554;14.454;2022-09-09T08:48:52;93719.00;;;23.60
41940;BMP180;23057;48.554;14.454;2022-09-09T08:51:29;93722.00;;;23.70
41940;BMP180;23057;48.554;14.454;2022-09-09T08:54:04;93717.00;;;23.70
41940;BMP180;23057;48.554;14.454;2022-09-09T08:56:35;93724.00;;;23.70
41940;BMP180;23057;48.554;14.454;2022-09-09T08:59:09;93720.00;;;23.80
41940;BMP180;23057;48.554;14.454;2022-09-09T09:02:07;93729.00;;;23.80
41940;BMP180;23057;48.554;14.454;2022-09-09T09:04:58;93724.00;;;23.90
41940;BMP180;23057;48.554;14.454;2022-09-09T09:08:00;93711.00;;;24.00
41940;BMP180;23057;48.554;14.454;2022-09-09T09:13:20;93709.00;;;24.00
41940;BMP180;23057;48.554;14.454;2022-09-09T09:19:00;93714.00;;;24.20
41940;BMP180;23057;48.554;14.454;2022-09-09T09:21:39;93714.00;;;24.30
41940;BMP180;23057;48.554;14.454;2022-09-09T09:24:19;93724.00;;;24.40
41940;BMP180;23057;48.554;14.454;2022-09-09T09:26:54;93724.00;;;24.50
41940;BMP180;23057;48.554;14.454;2022-09-09T09:29:25;93735.00;;;24.60
41940;BMP180;23057;48.554;14.454;2022-09-09T09:31:58;93723.00;;;24.60
41940;BMP180;23057;48.554;14.454;2022-09-09T09:34:33;93718.00;;;24.70
41940;BMP180;23057;48.554;14.454;2022-09-09T09:37:42;93731.00;;;24.80
41940;BMP180;23057;48.554;14.454;2022-09-09T09:40:19;93726.00;;;24.90
41940;BMP180;23057;48.554;14.454;2022-09-09T09:45:43;93735.00;;;25.00
41940;BMP180;23057;48.554;14.454;2022-09-09T09:48:18;93727.00;;;25.00
41940;BMP180;23057;48.554;14.454;2022-09-09T09:53:32;93724.00;;;24.90
41940;BMP180;23057;48.554;14.454;2022-09-09T09:56:14;93734.00;;;25.00
41940;BMP180;23057;48.554;14.454;2022-09-09T10:01:22;93732.00;;;25.00
41940;BMP180;23057;48.554;14.454;2022-09-09T10:04:16;93742.00;;;24.90
41940;BMP180;23057;48.554;14.454;2022-09-09T10:06:50;93742.00;;;24.90
41940;BMP180;23057;48.554;14.454;2022-09-09T10:09:24;93745.00;;;24.80
41940;BMP180;23057;48.554;14.454;2022-09-09T10:12:17;93744.00;;;24.80
41940;BMP180;23057;48.554;14.454;2022-09-09T10:15:05;93746.00;;;24.70
41940;BMP180;23057;48.554;14.454;2022-09-09T10:21:14;93751.00;;;24.60
41940;BMP180;23057;48.554;14.454;2022-09-09T10:30:18;93761.00;;;24.30
41940;BMP180;23057;48.554;14.454;2022-09-09T10:33:10;93757.00;;;24.20
41940;BMP180;23057;48.554;14.454;2022-09-09T10:38:45;93758.00;;;24.00
41940;BMP180;23057;48.554;14.454;2022-09-09T10:48:13;93750.00;;;23.90
41940;BMP180;23057;48.554;14.454;2022-09-09T10:51:27;93750.00;;;23.90
41940;BMP180;23057;48.554;14.454;2022-09-09T10:57:42;93758.00;;;23.80
41940;BMP180;23057;48.554;14.454;2022-09-09T11:00:22;93754.00;;;23.80
41940;BMP180;23057;48.554;14.454;2022-09-09T11:03:05;93750.00;;;23.70
41940;BMP180;23057;48.554;14.454;2022-09-09T11:05:46;93748.00;;;23.70
41940;BMP180;23057;48.554;14.454;2022-09-09T11:08:28;93743.00;;;23.70
41940;BMP180;23057;48.554;14.454;2022-09-09T11:11:12;93732.00;;;23.70
41940;BMP180;23057;48.554;14.454;2022-09-09T11:16:28;93729.00;;;23.50
41940;BMP180;23057;48.554;14.454;2022-09-09T11:19:16;93729.00;;;23.50
41940;BMP180;23057;48.554;14.454;2022-09-09T11:21:56;93729.00;;;23.50
41940;BMP180;23057;48.554;14.454;2022-09-09T11:24:36;93729.00;;;23.50
41940;BMP180;23057;48.554;14.454;2022-09-09T11:36:43;93714.00;;;23.70
41940;BMP180;23057;48.554;14.454;2022-09-09T11:44:44;93714.00;;;23.70
41940;BMP180;23057;48.554;14.454;2022-09-09T11:47:27;93703.00;;;23.70
41940;BMP180;23057;48.554;14.454;2022-09-09T11:53:23;93710.00;;;23.80
41940;BMP180;23057;48.554;14.454;2022-09-09T11:56:12;93716.00;;;23.90
41940;BMP180;23057;48.554;14.454;2022-09-09T11:58:55;93720.00;;;23.90
41940;BMP180;23057;48.554;14.454;2022-09-09T12:01:42;93710.00;;;23.90
41940;BMP180;23057;48.554;14.454;2022-09-09T12:04:46;93711.00;;;24.00
41940;BMP180;23057;48.554;14.454;2022-09-09T12:07:49;93706.00;;;24.10
41940;BMP180;23057;48.554;14.454;2022-09-09T12:10:32;93709.00;;;24.20
41940;BMP180;23057;48.554;14.454;2022-09-09T12:13:21;93716.00;;;24.20
41940;BMP180;23057;48.554;14.454;2022-09-09T12:15:57;93711.00;;;24.30
41940;BMP180;23057;48.554;14.454;2022-09-09T12:21:14;93721.00;;;24.30
41940;BMP180;23057;48.554;14.454;2022-09-09T12:24:05;93724.00;;;24.30
41940;BMP180;23057;48.554;14.454;2022-09-09T12:26:56;93719.00;;;24.30
41940;BMP180;23057;48.554;14.454;2022-09-09T12:29:45;93722.00;;;24.30
41940;BMP180;23057;48.554;14.454;2022-09-09T12:32:25;93721.00;;;24.30
41940;BMP180;23057;48.554;14.454;2022-09-09T12:35:13;93716.00;;;24.40
41940;BMP180;23057;48.554;14.454;2022-09-09T12:37:59;93715.00;;;24.30
41940;BMP180;23057;48.554;14.454;2022-09-09T12:40:34;93712.00;;;24.40
41940;BMP180;23057;48.554;14.454;2022-09-09T12:43:20;93704.00;;;24.40
41940;BMP180;23057;48.554;14.454;2022-09-09T12:46:00;93711.00;;;24.40
41940;BMP180;23057;48.554;14.454;2022-09-09T12:48:36;93713.00;;;24.50
41940;BMP180;23057;48.554;14.454;2022-09-09T12:51:22;93713.00;;;24.60
41940;BMP180;23057;48.554;14.454;2022-09-09T12:53:58;93718.00;;;24.60
41940;BMP180;23057;48.554;14.454;2022-09-09T12:56:31;93711.00;;;24.60
41940;BMP180;23057;48.554;14.454;2022-09-09T12:59:03;93710.00;;;24.60
41940;BMP180;23057;48.554;14.454;2022-09-09T13:01:34;93716.00;;;24.70
41940;BMP180;23057;48.554;14.454;2022-09-09T13:04:20;93711.00;;;24.70
41940;BMP180;23057;48.554;14.454;2022-09-09T13:06:52;93704.00;;;24.70
41940;BMP180;23057;48.554;14.454;2022-09-09T13:09:23;93703.00;;;24.80
41940;BMP180;23057;48.554;14.454;2022-09-09T13:11:55;93698.00;;;24.90
41940;BMP180;23057;48.554;14.454;2022-09-09T13:14:32;93692.00;;;24.90
41940;BMP180;23057;48.554;14.454;2022-09-09T13:17:19;93695.00;;;24.80
41940;BMP180;23057;48.554;14.454;2022-09-09T13:20:01;93699.00;;;24.80
41940;BMP180;23057;48.554;14.454;2022-09-09T13:22:37;93707.00;;;24.80
41940;BMP180;23057;48.554;14.454;2022-09-09T13:27:52;93700.00;;;24.80
41940;BMP180;23057;48.554;14.454;2022-09-09T13:30:29;93710.00;;;24.70
41940;BMP180;23057;48.554;14.454;2022-09-09T13:35:54;93709.00;;;24.50
41940;BMP180;23057;48.554;14.454;2022-09-09T13:38:29;93704.00;;;24.40
41940;BMP180;23057;48.554;14.454;2022-09-09T13:41:05;93695.00;;;24.30
41940;BMP180;23057;48.554;14.454;2022-09-09T13:43:43;93699.00;;;24.30
41940;BMP180;23057;48.554;14.454;2022-09-09T13:46:25;93692.00;;;24.40
41940;BMP180;23057;48.554;14.454;2022-09-09T13:51:42;93690.00;;;24.30
41940;BMP180;23057;48.554;14.454;2022-09-09T13:54:18;93681.00;;;24.30
41940;BMP180;23057;48.554;14.454;2022-09-09T13:56:50;93673.00;;;24.30
41940;BMP180;23057;48.554;14.454;2022-09-09T13:59:21;93666.00;;;24.30
41940;BMP180;23057;48.554;14.454;2022-09-09T14:01:51;93659.00;;;24.30
41940;BMP180;23057;48.554;14.454;2022-09-09T14:04:22;93674.00;;;24.30
41940;BMP180;23057;48.554;14.454;2022-09-09T14:06:54;93670.00;;;24.30
41940;BMP180;23057;48.554;14.454;2022-09-09T14:09:25;93679.00;;;24.20
41940;BMP180;23057;48.554;14.454;2022-09-09T14:11:56;93675.00;;;24.20
41940;BMP180;23057;48.554;14.454;2022-09-09T14:14:27;93678.00;;;24.20
41940;BMP180;23057;48.554;14.454;2022-09-09T14:16:58;93682.00;;;24.20
41940;BMP180;23057;48.554;14.454;2022-09-09T14:19:30;93678.00;;;24.30
41940;BMP180;23057;48.554;14.454;2022-09-09T14:22:01;93678.00;;;24.30
41940;BMP180;23057;48.554;14.454;2022-09-09T14:24:32;93674.00;;;24.30
41940;BMP180;23057;48.554;14.454;2022-09-09T14:27:03;93678.00;;;24.30
41940;BMP180;23057;48.554;14.454;2022-09-09T14:29:34;93686.00;;;24.30
41940;BMP180;23057;48.554;14.454;2022-09-09T14:32:04;93685.00;;;24.30
41940;BMP180;23057;48.554;14.454;2022-09-09T14:34:35;93689.00;;;24.30
41940;BMP180;23057;48.554;14.454;2022-09-09T14:37:06;93690.00;;;24.30
41940;BMP180;23057;48.554;14.454;2022-09-09T14:39:37;93689.00;;;24.30
41940;BMP180;23057;48.554;14.454;2022-09-09T14:42:07;93689.00;;;24.30
41940;BMP180;23057;48.554;14.454;2022-09-09T14:44:39;93682.00;;;24.30
41940;BMP180;23057;48.554;14.454;2022-09-09T14:47:11;93681.00;;;24.30
41940;BMP180;23057;48.554;14.454;2022-09-09T14:49:41;93680.00;;;24.20
41940;BMP180;23057;48.554;14.454;2022-09-09T14:52:12;93679.00;;;24.30
41940;BMP180;23057;48.554;14.454;2022-09-09T14:54:43;93682.00;;;24.30
41940;BMP180;23057;48.554;14.454;2022-09-09T14:57:14;93682.00;;;24.20
41940;BMP180;23057;48.554;14.454;2022-09-09T14:59:45;93679.00;;;24.20
41940;BMP180;23057;48.554;14.454;2022-09-09T15:02:16;93678.00;;;24.20
41940;BMP180;23057;48.554;14.454;2022-09-09T15:04:46;93666.00;;;24.20
41940;BMP180;23057;48.554;14.454;2022-09-09T15:07:17;93673.00;;;24.20
41940;BMP180;23057;48.554;14.454;2022-09-09T15:09:49;93660.00;;;24.20
41940;BMP180;23057;48.554;14.454;2022-09-09T15:12:20;93665.00;;;24.20
41940;BMP180;23057;48.554;14.454;2022-09-09T15:14:51;93666.00;;;24.30
41940;BMP180;23057;48.554;14.454;2022-09-09T15:17:24;93660.00;;;24.30
41940;BMP180;23057;48.554;14.454;2022-09-09T15:19:56;93655.00;;;24.30
41940;BMP180;23057;48.554;14.454;2022-09-09T15:22:27;93642.00;;;24.20
41940;BMP180;23057;48.554;14.454;2022-09-09T15:24:58;93643.00;;;24.20
41940;BMP180;23057;48.554;14.454;2022-09-09T15:27:29;93642.00;;;24.10
41940;BMP180;23057;48.554;14.454;2022-09-09T15:30:00;93644.00;;;24.10
41940;BMP180;23057;48.554;14.454;2022-09-09T15:32:31;93634.00;;;24.00
41940;BMP180;23057;48.554;14.454;2022-09-09T15:35:03;93640.00;;;24.00
41940;BMP180;23057;48.554;14.454;2022-09-09T15:37:34;93643.00;;;24.00
41940;BMP180;23057;48.554;14.454;2022-09-09T15:40:05;93646.00;;;24.00
41940;BMP180;23057;48.554;14.454;2022-09-09T15:42:36;93649.00;;;24.10
41940;BMP180;23057;48.554;14.454;2022-09-09T15:45:08;93644.00;;;24.00
41940;BMP180;23057;48.554;14.454;2022-09-09T15:47:39;93653.00;;;24.10
41940;BMP180;23057;48.554;14.454;2022-09-09T15:50:10;93649.00;;;24.00
41940;BMP180;23057;48.554;14.454;2022-09-09T15:52:40;93665.00;;;23.90
41940;BMP180;23057;48.554;14.454;2022-09-09T15:55:11;93660.00;;;23.80
41940;BMP180;23057;48.554;14.454;2022-09-09T15:57:42;93660.00;;;23.80
41940;BMP180;23057;48.554;14.454;2022-09-09T16:00:13;93659.00;;;23.70
41940;BMP180;23057;48.554;14.454;2022-09-09T16:02:44;93668.00;;;23.70
41940;BMP180;23057;48.554;14.454;2022-09-09T16:05:17;93663.00;;;23.70
41940;BMP180;23057;48.554;14.454;2022-09-09T16:07:48;93646.00;;;23.60
41940;BMP180;23057;48.554;14.454;2022-09-09T16:10:18;93647.00;;;23.60
41940;BMP180;23057;48.554;14.454;2022-09-09T16:12:49;93642.00;;;23.50
41940;BMP180;23057;48.554;14.454;2022-09-09T16:15:21;93649.00;;;23.40
41940;BMP180;23057;48.554;14.454;2022-09-09T16:17:53;93651.00;;;23.30
41940;BMP180;23057;48.554;14.454;2022-09-09T16:20:24;93658.00;;;23.20
41940;BMP180;23057;48.554;14.454;2022-09-09T16:22:55;93660.00;;;23.20